sensor_id;sensor_type;location;lat;lon;timestamp;pressure;altitude;pressure_sealevel;temperature;humidity
58239;BME280;44037;55.638;37.356;2023-02-15T01:38:15;99490.31;;;-3.24;92.77
58239;BME280;44037;55.638;37.356;2023-02-15T01:40:42;99478.63;;;-3.21;92.67
58239;BME280;44037;55.638;37.356;2023-02-15T01:43:11;99487.19;;;-3.19;92.58
58239;BME280;44037;55.638;37.356;2023-02-15T01:45:39;99483.50;;;-3.25;91.77
58239;BME280;44037;55.638;37.356;2023-02-15T01:48:19;99495.59;;;-3.34;92.39
58239;BME280;44037;55.638;37.356;2023-02-15T01:50:50;99485.66;;;-3.31;92.68
58239;BME280;44037;55.638;37.356;2023-02-15T01:53:22;99488.19;;;-3.31;92.35
58239;BME280;44037;55.638;37.356;2023-02-15T01:55:53;99472.22;;;-3.30;92.80
58239;BME280;44037;55.638;37.356;2023-02-15T01:58:22;99482.22;;;-3.31;92.99
58239;BME280;44037;55.638;37.356;2023-02-15T02:00:52;99493.56;;;-3.40;93.00
58239;BME280;44037;55.638;37.356;2023-02-15T02:03:24;99485.19;;;-3.38;93.50
58239;BME280;44037;55.638;37.356;2023-02-15T02:05:56;99486.25;;;-3.35;93.46
58239;BME280;44037;55.638;37.356;2023-02-15T02:08:25;99493.06;;;-3.34;93.25
58239;BME280;44037;55.638;37.356;2023-02-15T02:10:52;99484.75;;;-3.31;93.62
58239;BME280;44037;55.638;37.356;2023-02-15T02:13:19;99481.38;;;-3.32;92.72
58239;BME280;44037;55.638;37.356;2023-02-15T02:15:49;99487.41;;;-3.30;92.55
58239;BME280;44037;55.638;37.356;2023-02-15T02:18:33;99474.91;;;-3.27;92.21
58239;BME280;44037;55.638;37.356;2023-02-15T02:24:20;99511.66;;;-3.20;91.30
58239;BME280;44037;55.638;37.356;2023-02-15T02:27:18;99487.19;;;-3.19;90.74
58239;BME280;44037;55.638;37.356;2023-02-15T02:30:18;99474.31;;;-3.22;89.07
58239;BME280;44037;55.638;37.356;2023-02-15T02:35:56;99497.13;;;-3.22;88.37
58239;BME280;44037;55.638;37.356;2023-02-15T02:38:28;99502.78;;;-3.27;87.95
58239;BME280;44037;55.638;37.356;2023-02-15T02:41:07;99493.63;;;-3.25;87.72
58239;BME280;44037;55.638;37.356;2023-02-15T02:43:47;99505.50;;;-3.24;87.09
58239;BME280;44037;55.638;37.356;2023-02-15T02:46:19;99492.75;;;-3.25;87.00
58239;BME280;44037;55.638;37.356;2023-02-15T02:48:49;99491.00;;;-3.26;86.81
58239;BME280;44037;55.638;37.356;2023-02-15T02:51:16;99503.41;;;-3.31;85.75
58239;BME280;44037;55.638;37.356;2023-02-15T02:53:50;99488.06;;;-3.32;86.21
58239;BME280;44037;55.638;37.356;2023-02-15T02:56:22;99506.00;;;-3.29;86.05
58239;BME280;44037;55.638;37.356;2023-02-15T02:58:55;99501.84;;;-3.29;86.32
58239;BME280;44037;55.638;37.356;2023-02-15T03:01:24;99504.47;;;-3.27;85.69
58239;BME280;44037;55.638;37.356;2023-02-15T03:03:57;99506.00;;;-3.29;85.18
58239;BME280;44037;55.638;37.356;2023-02-15T03:06:30;99506.13;;;-3.28;84.95
58239;BME280;44037;55.638;37.356;2023-02-15T03:09:03;99508.66;;;-3.28;84.83
58239;BME280;44037;55.638;37.356;2023-02-15T03:11:33;99515.28;;;-3.30;84.21
58239;BME280;44037;55.638;37.356;2023-02-15T03:14:01;99506.72;;;-3.32;84.14
58239;BME280;44037;55.638;37.356;2023-02-15T03:16:28;99515.09;;;-3.33;84.09
58239;BME280;44037;55.638;37.356;2023-02-15T03:18:59;99507.50;;;-3.33;84.51
58239;BME280;44037;55.638;37.356;2023-02-15T03:21:31;99519.75;;;-3.39;83.76
58239;BME280;44037;55.638;37.356;2023-02-15T03:24:02;99523.19;;;-3.38;83.79
58239;BME280;44037;55.638;37.356;2023-02-15T03:26:32;99521.44;;;-3.40;83.63
58239;BME280;44037;55.638;37.356;2023-02-15T03:29:02;99518.13;;;-3.38;83.57
58239;BME280;44037;55.638;37.356;2023-02-15T03:31:32;99522.28;;;-3.39;83.44
58239;BME280;44037;55.638;37.356;2023-02-15T03:34:03;99540.72;;;-3.42;83.62
58239;BME280;44037;55.638;37.356;2023-02-15T03:36:37;99531.28;;;-3.44;83.13
58239;BME280;44037;55.638;37.356;2023-02-15T03:39:12;99520.25;;;-3.45;83.61
58239;BME280;44037;55.638;37.356;2023-02-15T03:41:46;99521.94;;;-3.45;83.85
58239;BME280;44037;55.638;37.356;2023-02-15T03:44:19;99518.69;;;-3.43;84.00
58239;BME280;44037;55.638;37.356;2023-02-15T03:46:52;99531.09;;;-3.47;83.57
58239;BME280;44037;55.638;37.356;2023-02-15T03:49:26;99516.44;;;-3.51;83.88
58239;BME280;44037;55.638;37.356;2023-02-15T03:51:56;99528.94;;;-3.55;83.53
58239;BME280;44037;55.638;37.356;2023-02-15T03:54:27;99534.38;;;-3.62;83.91
58239;BME280;44037;55.638;37.356;2023-02-15T03:57:11;99531.47;;;-3.68;84.45
58239;BME280;44037;55.638;37.356;2023-02-15T03:59:56;99529.31;;;-3.75;84.55
58239;BME280;44037;55.638;37.356;2023-02-15T04:02:54;99541.31;;;-3.86;84.28
58239;BME280;44037;55.638;37.356;2023-02-15T04:05:25;99529.28;;;-3.89;84.63
58239;BME280;44037;55.638;37.356;2023-02-15T04:07:52;99538.78;;;-3.86;84.71
58239;BME280;44037;55.638;37.356;2023-02-15T04:10:19;99530.06;;;-3.90;84.55
58239;BME280;44037;55.638;37.356;2023-02-15T04:13:03;99526.47;;;-3.93;84.07
58239;BME280;44037;55.638;37.356;2023-02-15T04:15:30;99519.66;;;-3.94;84.04
58239;BME280;44037;55.638;37.356;2023-02-15T04:18:14;99531.53;;;-3.93;83.59
58239;BME280;44037;55.638;37.356;2023-02-15T04:20:44;99553.47;;;-3.94;82.90
58239;BME280;44037;55.638;37.356;2023-02-15T04:23:29;99529.69;;;-3.96;83.09
58239;BME280;44037;55.638;37.356;2023-02-15T04:26:14;99533.22;;;-3.94;82.43
58239;BME280;44037;55.638;37.356;2023-02-15T04:28:41;99535.53;;;-3.97;81.36
58239;BME280;44037;55.638;37.356;2023-02-15T04:31:08;99536.31;;;-3.98;81.45
58239;BME280;44037;55.638;37.356;2023-02-15T04:33:35;99554.22;;;-3.95;81.56
58239;BME280;44037;55.638;37.356;2023-02-15T04:36:04;99542.34;;;-3.96;81.18
58239;BME280;44037;55.638;37.356;2023-02-15T04:38:31;99553.25;;;-3.97;80.50
58239;BME280;44037;55.638;37.356;2023-02-15T04:40:58;99538.16;;;-3.95;80.27
58239;BME280;44037;55.638;37.356;2023-02-15T04:43:25;99555.69;;;-3.98;79.30
58239;BME280;44037;55.638;37.356;2023-02-15T04:45:52;99554.03;;;-3.98;79.99
58239;BME280;44037;55.638;37.356;2023-02-15T04:48:19;99561.63;;;-3.98;79.13
58239;BME280;44037;55.638;37.356;2023-02-15T04:50:46;99553.16;;;-3.98;79.51
58239;BME280;44037;55.638;37.356;2023-02-15T04:53:15;99554.09;;;-3.96;78.98
58239;BME280;44037;55.638;37.356;2023-02-15T04:55:43;99550.50;;;-4.00;78.48
58239;BME280;44037;55.638;37.356;2023-02-15T04:58:10;99535.31;;;-4.00;78.04
58239;BME280;44037;55.638;37.356;2023-02-15T05:00:37;99553.16;;;-3.98;78.06
58239;BME280;44037;55.638;37.356;2023-02-15T05:03:04;99537.97;;;-3.98;78.24
58239;BME280;44037;55.638;37.356;2023-02-15T05:05:31;99550.72;;;-3.97;77.72
58239;BME280;44037;55.638;37.356;2023-02-15T05:07:58;99559.09;;;-3.98;77.98
58239;BME280;44037;55.638;37.356;2023-02-15T05:10:27;99578.34;;;-4.00;77.36
58239;BME280;44037;55.638;37.356;2023-02-15T05:12:54;99572.13;;;-4.05;77.35
58239;BME280;44037;55.638;37.356;2023-02-15T05:15:21;99569.97;;;-3.99;77.96
58239;BME280;44037;55.638;37.356;2023-02-15T05:17:48;99559.09;;;-3.98;77.43
58239;BME280;44037;55.638;37.356;2023-02-15T05:20:15;99555.00;;;-3.96;77.84
58239;BME280;44037;55.638;37.356;2023-02-15T05:22:43;99568.66;;;-3.94;77.40
58239;BME280;44037;55.638;37.356;2023-02-15T05:25:11;99562.97;;;-3.90;77.62
58239;BME280;44037;55.638;37.356;2023-02-15T05:27:56;99589.50;;;-3.84;77.80
58239;BME280;44037;55.638;37.356;2023-02-15T05:30:41;99583.44;;;-3.87;76.87
58239;BME280;44037;55.638;37.356;2023-02-15T05:33:08;99568.84;;;-3.91;76.57
58239;BME280;44037;55.638;37.356;2023-02-15T05:35:35;99561.44;;;-3.88;76.78
58239;BME280;44037;55.638;37.356;2023-02-15T05:38:02;99593.00;;;-3.82;76.87
58239;BME280;44037;55.638;37.356;2023-02-15T05:40:29;99575.06;;;-3.86;76.40
58239;BME280;44037;55.638;37.356;2023-02-15T05:42:58;99575.00;;;-3.87;76.21
58239;BME280;44037;55.638;37.356;2023-02-15T05:45:25;99577.69;;;-3.84;76.60
58239;BME280;44037;55.638;37.356;2023-02-15T05:47:52;99585.63;;;-3.79;76.32
58239;BME280;44037;55.638;37.356;2023-02-15T05:50:19;99580.44;;;-3.81;76.13
58239;BME280;44037;55.638;37.356;2023-02-15T05:52:46;99588.34;;;-3.76;75.74
58239;BME280;44037;55.638;37.356;2023-02-15T05:55:13;99575.09;;;-3.72;76.32
58239;BME280;44037;55.638;37.356;2023-02-15T05:57:41;99582.78;;;-3.71;75.91
58239;BME280;44037;55.638;37.356;2023-02-15T06:00:10;99583.88;;;-3.67;75.74
58239;BME280;44037;55.638;37.356;2023-02-15T06:02:39;99598.47;;;-3.63;76.23
58239;BME280;44037;55.638;37.356;2023-02-15T06:05:06;99576.16;;;-3.68;75.34
58239;BME280;44037;55.638;37.356;2023-02-15T06:07:34;99603.38;;;-3.66;75.52
58239;BME280;44037;55.638;37.356;2023-02-15T06:10:01;99607.63;;;-3.78;75.19
58239;BME280;44037;55.638;37.356;2023-02-15T06:12:29;99599.16;;;-3.79;74.93
58239;BME280;44037;55.638;37.356;2023-02-15T06:14:56;99592.25;;;-3.68;75.46
58239;BME280;44037;55.638;37.356;2023-02-15T06:17:25;99582.91;;;-3.56;75.80
58239;BME280;44037;55.638;37.356;2023-02-15T06:19:52;99596.19;;;-3.46;75.24
58239;BME280;44037;55.638;37.356;2023-02-15T06:22:19;99602.22;;;-3.44;74.80
58239;BME280;44037;55.638;37.356;2023-02-15T06:24:47;99599.56;;;-3.46;74.79
58239;BME280;44037;55.638;37.356;2023-02-15T06:27:14;99583.88;;;-3.40;75.11
58239;BME280;44037;55.638;37.356;2023-02-15T06:29:41;99609.41;;;-3.37;74.99
58239;BME280;44037;55.638;37.356;2023-02-15T06:32:08;99586.25;;;-3.43;74.39
58239;BME280;44037;55.638;37.356;2023-02-15T06:34:36;99582.03;;;-3.43;75.40
58239;BME280;44037;55.638;37.356;2023-02-15T06:37:03;99602.22;;;-3.44;74.97
58239;BME280;44037;55.638;37.356;2023-02-15T06:39:31;99596.19;;;-3.46;74.46
58239;BME280;44037;55.638;37.356;2023-02-15T06:41:58;99639.81;;;-3.50;74.70
58239;BME280;44037;55.638;37.356;2023-02-15T06:44:25;99612.69;;;-3.65;74.46
58239;BME280;44037;55.638;37.356;2023-02-15T06:46:52;99620.41;;;-3.63;74.52
58239;BME280;44037;55.638;37.356;2023-02-15T06:49:19;99626.16;;;-3.52;74.49
58239;BME280;44037;55.638;37.356;2023-02-15T06:51:48;99638.06;;;-3.51;73.99
58239;BME280;44037;55.638;37.356;2023-02-15T06:54:15;99610.56;;;-3.59;73.61
58239;BME280;44037;55.638;37.356;2023-02-15T06:56:42;99631.13;;;-3.54;74.28
58239;BME280;44037;55.638;37.356;2023-02-15T06:59:09;99612.53;;;-3.55;73.95
58239;BME280;44037;55.638;37.356;2023-02-15T07:01:36;99628.59;;;-3.54;73.67
58239;BME280;44037;55.638;37.356;2023-02-15T07:04:04;99637.75;;;-3.56;73.81
58239;BME280;44037;55.638;37.356;2023-02-15T07:06:31;99633.66;;;-3.54;73.43
58239;BME280;44037;55.638;37.356;2023-02-15T07:09:00;99623.97;;;-3.48;73.55
58239;BME280;44037;55.638;37.356;2023-02-15T07:11:27;99629.41;;;-3.42;73.42
58239;BME280;44037;55.638;37.356;2023-02-15T07:14:12;99650.44;;;-3.43;72.85
58239;BME280;44037;55.638;37.356;2023-02-15T07:16:39;99630.38;;;-3.40;72.32
58239;BME280;44037;55.638;37.356;2023-02-15T07:19:06;99626.66;;;-3.45;72.39
58239;BME280;44037;55.638;37.356;2023-02-15T07:21:33;99620.25;;;-3.40;72.83
58239;BME280;44037;55.638;37.356;2023-02-15T07:24:02;99615.19;;;-3.40;72.40
58239;BME280;44037;55.638;37.356;2023-02-15T07:26:31;99618.69;;;-3.37;72.76
58239;BME280;44037;55.638;37.356;2023-02-15T07:28:58;99616.44;;;-3.33;73.07
58239;BME280;44037;55.638;37.356;2023-02-15T07:31:25;99633.41;;;-3.32;72.84
58239;BME280;44037;55.638;37.356;2023-02-15T07:33:52;99626.38;;;-3.36;72.68
58239;BME280;44037;55.638;37.356;2023-02-15T07:36:19;99625.59;;;-3.35;72.79
58239;BME280;44037;55.638;37.356;2023-02-15T07:38:46;99614.50;;;-3.24;72.26
58239;BME280;44037;55.638;37.356;2023-02-15T07:41:15;99624.84;;;-3.07;72.42
58239;BME280;44037;55.638;37.356;2023-02-15T07:43:44;99626.97;;;-3.13;72.40
58239;BME280;44037;55.638;37.356;2023-02-15T07:46:13;99622.19;;;-3.09;72.52
58239;BME280;44037;55.638;37.356;2023-02-15T07:48:41;99648.03;;;-3.14;73.15
58239;BME280;44037;55.638;37.356;2023-02-15T07:51:10;99633.63;;;-3.15;74.39
58239;BME280;44037;55.638;37.356;2023-02-15T07:53:38;99627.88;;;-3.26;75.84
58239;BME280;44037;55.638;37.356;2023-02-15T07:56:08;99623.28;;;-3.32;76.40
58239;BME280;44037;55.638;37.356;2023-02-15T07:58:37;99636.53;;;-3.22;77.06
58239;BME280;44037;55.638;37.356;2023-02-15T08:01:25;99633.72;;;-3.14;77.85
58239;BME280;44037;55.638;37.356;2023-02-15T08:03:53;99644.22;;;-3.21;78.65
58239;BME280;44037;55.638;37.356;2023-02-15T08:06:20;99632.63;;;-3.31;79.06
58239;BME280;44037;55.638;37.356;2023-02-15T08:08:48;99632.72;;;-3.43;79.32
58239;BME280;44037;55.638;37.356;2023-02-15T08:11:17;99632.81;;;-3.41;79.20
58239;BME280;44037;55.638;37.356;2023-02-15T08:14:00;99633.69;;;-3.41;79.58
58239;BME280;44037;55.638;37.356;2023-02-15T08:16:31;99646.66;;;-3.36;79.38
58239;BME280;44037;55.638;37.356;2023-02-15T08:19:00;99650.25;;;-3.46;79.08
58239;BME280;44037;55.638;37.356;2023-02-15T08:21:29;99662.78;;;-3.61;79.08
58239;BME280;44037;55.638;37.356;2023-02-15T08:23:57;99646.59;;;-3.63;78.71
58239;BME280;44037;55.638;37.356;2023-02-15T08:26:25;99684.44;;;-3.52;78.99
58239;BME280;44037;55.638;37.356;2023-02-15T08:28:53;99681.31;;;-3.48;78.18
58239;BME280;44037;55.638;37.356;2023-02-15T08:31:22;99658.34;;;-3.38;77.71
58239;BME280;44037;55.638;37.356;2023-02-15T08:33:51;99651.34;;;-3.29;76.99
58239;BME280;44037;55.638;37.356;2023-02-15T08:36:20;99662.84;;;-3.20;76.66
58239;BME280;44037;55.638;37.356;2023-02-15T08:38:47;99677.16;;;-3.21;75.85
58239;BME280;44037;55.638;37.356;2023-02-15T08:41:16;99676.78;;;-3.27;75.47
58239;BME280;44037;55.638;37.356;2023-02-15T08:43:45;99660.69;;;-3.14;74.67
58239;BME280;44037;55.638;37.356;2023-02-15T08:46:14;99659.84;;;-3.01;74.49
58239;BME280;44037;55.638;37.356;2023-02-15T08:48:44;99658.78;;;-2.78;74.54
58239;BME280;44037;55.638;37.356;2023-02-15T08:51:13;99649.28;;;-2.67;73.83
58239;BME280;44037;55.638;37.356;2023-02-15T08:53:42;99676.88;;;-2.72;72.34
58239;BME280;44037;55.638;37.356;2023-02-15T08:56:10;99662.34;;;-2.61;72.42
58239;BME280;44037;55.638;37.356;2023-02-15T08:58:37;99654.06;;;-2.72;71.91
58239;BME280;44037;55.638;37.356;2023-02-15T09:01:12;99676.13;;;-2.71;71.93
58239;BME280;44037;55.638;37.356;2023-02-15T09:03:39;99668.72;;;-2.81;71.37
58239;BME280;44037;55.638;37.356;2023-02-15T09:06:08;99673.66;;;-2.83;71.92
58239;BME280;44037;55.638;37.356;2023-02-15T09:08:35;99670.34;;;-2.95;70.96
58239;BME280;44037;55.638;37.356;2023-02-15T09:11:07;99671.94;;;-2.97;71.22
58239;BME280;44037;55.638;37.356;2023-02-15T09:13:34;99674.00;;;-3.05;71.08
58239;BME280;44037;55.638;37.356;2023-02-15T09:16:02;99672.31;;;-3.18;71.43
58239;BME280;44037;55.638;37.356;2023-02-15T09:18:31;99675.34;;;-3.10;71.82
58239;BME280;44037;55.638;37.356;2023-02-15T09:21:05;99690.63;;;-3.09;72.05
58239;BME280;44037;55.638;37.356;2023-02-15T09:23:33;99662.75;;;-3.09;71.68
58239;BME280;44037;55.638;37.356;2023-02-15T09:26:08;99690.53;;;-3.24;71.91
58239;BME280;44037;55.638;37.356;2023-02-15T09:28:35;99698.53;;;-3.17;72.39
58239;BME280;44037;55.638;37.356;2023-02-15T09:31:07;99677.50;;;-3.16;73.17
58239;BME280;44037;55.638;37.356;2023-02-15T09:33:36;99686.84;;;-3.02;72.52
58239;BME280;44037;55.638;37.356;2023-02-15T09:36:03;99691.53;;;-2.95;72.50
58239;BME280;44037;55.638;37.356;2023-02-15T09:38:30;99684.13;;;-2.91;72.60
58239;BME280;44037;55.638;37.356;2023-02-15T09:41:14;99678.94;;;-2.80;72.48
58239;BME280;44037;55.638;37.356;2023-02-15T09:43:49;99675.69;;;-2.64;72.51
58239;BME280;44037;55.638;37.356;2023-02-15T09:46:32;99689.56;;;-2.58;72.04
58239;BME280;44037;55.638;37.356;2023-02-15T09:49:07;99693.47;;;-2.64;71.50
58239;BME280;44037;55.638;37.356;2023-02-15T09:51:51;99684.59;;;-2.70;71.75
58239;BME280;44037;55.638;37.356;2023-02-15T09:54:45;99694.66;;;-2.72;71.75
58239;BME280;44037;55.638;37.356;2023-02-15T09:57:26;99688.22;;;-2.80;70.79
58239;BME280;44037;55.638;37.356;2023-02-15T10:00:04;99705.78;;;-2.83;71.12
58239;BME280;44037;55.638;37.356;2023-02-15T10:02:42;99696.81;;;-2.78;71.52
58239;BME280;44037;55.638;37.356;2023-02-15T10:05:24;99708.59;;;-2.79;71.42
58239;BME280;44037;55.638;37.356;2023-02-15T10:08:10;99703.72;;;-2.75;71.36
58239;BME280;44037;55.638;37.356;2023-02-15T10:10:46;99698.84;;;-2.72;71.79
58239;BME280;44037;55.638;37.356;2023-02-15T10:13:29;99698.75;;;-2.74;71.29
58239;BME280;44037;55.638;37.356;2023-02-15T10:16:10;99699.72;;;-2.72;71.80
58239;BME280;44037;55.638;37.356;2023-02-15T10:18:52;99716.22;;;-2.65;71.33
58239;BME280;44037;55.638;37.356;2023-02-15T10:21:33;99706.84;;;-2.80;70.91
58239;BME280;44037;55.638;37.356;2023-02-15T10:27:13;99716.09;;;-3.07;71.42
58239;BME280;44037;55.638;37.356;2023-02-15T10:29:50;99724.28;;;-2.98;72.22
58239;BME280;44037;55.638;37.356;2023-02-15T10:32:24;99712.19;;;-2.88;72.41
58239;BME280;44037;55.638;37.356;2023-02-15T10:34:52;99721.00;;;-2.83;72.71
58239;BME280;44037;55.638;37.356;2023-02-15T10:37:57;99712.41;;;-2.85;72.64
58239;BME280;44037;55.638;37.356;2023-02-15T10:40:32;99729.00;;;-2.90;72.52
58239;BME280;44037;55.638;37.356;2023-02-15T10:43:14;99716.50;;;-2.87;72.32
58239;BME280;44037;55.638;37.356;2023-02-15T10:45:52;99722.94;;;-2.79;72.64
58239;BME280;44037;55.638;37.356;2023-02-15T10:48:33;99733.47;;;-2.86;72.72
58239;BME280;44037;55.638;37.356;2023-02-15T10:51:06;99737.38;;;-2.91;73.12
58239;BME280;44037;55.638;37.356;2023-02-15T10:53:45;99733.66;;;-2.97;72.97
58239;BME280;44037;55.638;37.356;2023-02-15T10:56:20;99748.28;;;-3.06;73.46
58239;BME280;44037;55.638;37.356;2023-02-15T10:59:10;99752.16;;;-3.11;74.08
58239;BME280;44037;55.638;37.356;2023-02-15T11:01:48;99759.97;;;-3.08;74.93
58239;BME280;44037;55.638;37.356;2023-02-15T11:04:41;99737.84;;;-3.11;74.37
58239;BME280;44037;55.638;37.356;2023-02-15T11:07:16;99752.56;;;-3.05;74.57
58239;BME280;44037;55.638;37.356;2023-02-15T11:09:47;99762.13;;;-3.01;75.13
58239;BME280;44037;55.638;37.356;2023-02-15T11:12:18;99757.25;;;-2.98;75.30
58239;BME280;44037;55.638;37.356;2023-02-15T11:14:52;99758.25;;;-2.96;76.12
58239;BME280;44037;55.638;37.356;2023-02-15T11:17:26;99755.19;;;-3.03;76.34
58239;BME280;44037;55.638;37.356;2023-02-15T11:20:00;99759.72;;;-2.99;76.92
58239;BME280;44037;55.638;37.356;2023-02-15T11:22:32;99765.25;;;-3.05;77.47
58239;BME280;44037;55.638;37.356;2023-02-15T11:25:01;99760.38;;;-3.15;78.95
58239;BME280;44037;55.638;37.356;2023-02-15T11:27:31;99762.47;;;-3.21;79.32
58239;BME280;44037;55.638;37.356;2023-02-15T11:30:02;99782.75;;;-3.21;79.64
58239;BME280;44037;55.638;37.356;2023-02-15T11:32:35;99769.88;;;-3.25;80.32
58239;BME280;44037;55.638;37.356;2023-02-15T11:35:11;99770.56;;;-3.27;80.50
58239;BME280;44037;55.638;37.356;2023-02-15T11:37:47;99791.66;;;-3.40;81.87
58239;BME280;44037;55.638;37.356;2023-02-15T11:40:19;99776.06;;;-3.46;81.89
58239;BME280;44037;55.638;37.356;2023-02-15T11:42:48;99782.44;;;-3.51;82.94
58239;BME280;44037;55.638;37.356;2023-02-15T11:45:22;99783.69;;;-3.58;83.53
58239;BME280;44037;55.638;37.356;2023-02-15T11:47:54;99782.19;;;-3.43;83.46
58239;BME280;44037;55.638;37.356;2023-02-15T11:50:24;99793.63;;;-3.36;83.41
58239;BME280;44037;55.638;37.356;2023-02-15T11:52:54;99785.81;;;-3.39;84.65
58239;BME280;44037;55.638;37.356;2023-02-15T11:55:23;99796.72;;;-3.40;84.12
58239;BME280;44037;55.638;37.356;2023-02-15T11:57:54;99802.16;;;-3.47;84.55
58239;BME280;44037;55.638;37.356;2023-02-15T12:00:31;99790.28;;;-3.48;85.00
58239;BME280;44037;55.638;37.356;2023-02-15T12:03:09;99811.22;;;-3.51;85.14
58239;BME280;44037;55.638;37.356;2023-02-15T12:05:42;99806.03;;;-3.52;85.20
58239;BME280;44037;55.638;37.356;2023-02-15T12:08:15;99796.88;;;-3.50;84.71
58239;BME280;44037;55.638;37.356;2023-02-15T12:10:53;99798.38;;;-3.41;84.81
58239;BME280;44037;55.638;37.356;2023-02-15T12:13:22;99803.38;;;-3.42;85.14
58239;BME280;44037;55.638;37.356;2023-02-15T12:15:51;99798.19;;;-3.44;85.47
58239;BME280;44037;55.638;37.356;2023-02-15T12:18:31;99802.38;;;-3.44;85.56
58239;BME280;44037;55.638;37.356;2023-02-15T12:21:02;99800.94;;;-3.41;85.23
58239;BME280;44037;55.638;37.356;2023-02-15T12:23:32;99814.16;;;-3.45;85.16
58239;BME280;44037;55.638;37.356;2023-02-15T12:25:59;99815.81;;;-3.45;85.27
58239;BME280;44037;55.638;37.356;2023-02-15T12:28:32;99806.75;;;-3.42;85.76
58239;BME280;44037;55.638;37.356;2023-02-15T12:31:02;99817.59;;;-3.44;85.20
58239;BME280;44037;55.638;37.356;2023-02-15T12:33:32;99818.56;;;-3.42;85.15
58239;BME280;44037;55.638;37.356;2023-02-15T12:36:04;99815.56;;;-3.36;85.08
58239;BME280;44037;55.638;37.356;2023-02-15T12:38:37;99818.63;;;-3.29;85.00
58239;BME280;44037;55.638;37.356;2023-02-15T12:41:10;99827.00;;;-3.30;84.81
58239;BME280;44037;55.638;37.356;2023-02-15T12:44:03;99829.22;;;-3.34;84.69
58239;BME280;44037;55.638;37.356;2023-02-15T12:46:31;99833.97;;;-3.39;84.19
58239;BME280;44037;55.638;37.356;2023-02-15T12:49:16;99854.50;;;-3.48;83.40
58239;BME280;44037;55.638;37.356;2023-02-15T12:51:49;99834.88;;;-3.50;83.17
58239;BME280;44037;55.638;37.356;2023-02-15T12:54:21;99840.06;;;-3.49;82.84
58239;BME280;44037;55.638;37.356;2023-02-15T12:56:52;99834.41;;;-3.45;83.40
58239;BME280;44037;55.638;37.356;2023-02-15T12:59:20;99852.38;;;-3.42;82.78
58239;BME280;44037;55.638;37.356;2023-02-15T13:01:47;99849.16;;;-3.39;82.86
58239;BME280;44037;55.638;37.356;2023-02-15T13:04:22;99863.97;;;-3.45;81.04
58239;BME280;44037;55.638;37.356;2023-02-15T13:06:51;99856.50;;;-3.56;80.91
58239;BME280;44037;55.638;37.356;2023-02-15T13:09:20;99856.50;;;-3.56;79.79
58239;BME280;44037;55.638;37.356;2023-02-15T13:11:51;99867.50;;;-3.55;79.51
58239;BME280;44037;55.638;37.356;2023-02-15T13:14:19;99876.97;;;-3.52;78.86
58239;BME280;44037;55.638;37.356;2023-02-15T13:16:48;99860.13;;;-3.52;78.63
58239;BME280;44037;55.638;37.356;2023-02-15T13:19:22;99864.06;;;-3.44;79.08
58239;BME280;44037;55.638;37.356;2023-02-15T13:21:54;99881.34;;;-3.38;78.57
58239;BME280;44037;55.638;37.356;2023-02-15T13:24:25;99879.16;;;-3.45;76.13
58239;BME280;44037;55.638;37.356;2023-02-15T13:26:54;99874.88;;;-3.46;75.87
58239;BME280;44037;55.638;37.356;2023-02-15T13:29:24;99872.88;;;-3.50;74.85
58239;BME280;44037;55.638;37.356;2023-02-15T13:31:53;99872.78;;;-3.52;74.86
58239;BME280;44037;55.638;37.356;2023-02-15T13:34:24;99883.69;;;-3.53;75.66
58239;BME280;44037;55.638;37.356;2023-02-15T13:37:00;99892.38;;;-3.49;76.59
58239;BME280;44037;55.638;37.356;2023-02-15T13:39:36;99887.53;;;-3.46;76.66
58239;BME280;44037;55.638;37.356;2023-02-15T13:42:16;99897.66;;;-3.46;77.58
58239;BME280;44037;55.638;37.356;2023-02-15T13:44:58;99892.59;;;-3.46;78.21
58239;BME280;44037;55.638;37.356;2023-02-15T13:47:35;99891.53;;;-3.50;78.52
58239;BME280;44037;55.638;37.356;2023-02-15T13:50:23;99893.06;;;-3.52;79.11
58239;BME280;44037;55.638;37.356;2023-02-15T13:53:07;99894.91;;;-3.49;79.32
58239;BME280;44037;55.638;37.356;2023-02-15T13:55:39;99892.59;;;-3.46;79.49
58239;BME280;44037;55.638;37.356;2023-02-15T14:01:10;99900.44;;;-3.55;79.67
58239;BME280;44037;55.638;37.356;2023-02-15T14:03:55;99911.16;;;-3.59;79.67
58239;BME280;44037;55.638;37.356;2023-02-15T14:06:46;99901.34;;;-3.66;79.57
58239;BME280;44037;55.638;37.356;2023-02-15T14:09:24;99907.84;;;-3.70;79.94
58239;BME280;44037;55.638;37.356;2023-02-15T14:12:04;99902.78;;;-3.70;80.01
58239;BME280;44037;55.638;37.356;2023-02-15T14:14:49;99910.72;;;-3.65;80.58
58239;BME280;44037;55.638;37.356;2023-02-15T14:17:24;99913.34;;;-3.64;80.15
58239;BME280;44037;55.638;37.356;2023-02-15T14:19:57;99915.00;;;-3.64;80.41
58239;BME280;44037;55.638;37.356;2023-02-15T14:22:33;99916.63;;;-3.65;80.30
58239;BME280;44037;55.638;37.356;2023-02-15T14:25:17;99915.78;;;-3.65;80.16
58239;BME280;44037;55.638;37.356;2023-02-15T14:27:54;99921.94;;;-3.62;80.08
58239;BME280;44037;55.638;37.356;2023-02-15T14:30:25;99930.28;;;-3.63;80.26
58239;BME280;44037;55.638;37.356;2023-02-15T14:32:56;99929.22;;;-3.66;79.85
58239;BME280;44037;55.638;37.356;2023-02-15T14:35:28;99931.66;;;-3.68;79.96
58239;BME280;44037;55.638;37.356;2023-02-15T14:38:04;99923.28;;;-3.67;80.02
58239;BME280;44037;55.638;37.356;2023-02-15T14:40:40;99920.16;;;-3.63;79.83
58239;BME280;44037;55.638;37.356;2023-02-15T14:43:39;99924.47;;;-3.62;79.84
58239;BME280;44037;55.638;37.356;2023-02-15T14:46:16;99932.75;;;-3.64;79.54
58239;BME280;44037;55.638;37.356;2023-02-15T14:48:47;99940.09;;;-3.67;78.65
58239;BME280;44037;55.638;37.356;2023-02-15T14:54:54;99950.81;;;-3.83;77.67
58239;BME280;44037;55.638;37.356;2023-02-15T14:57:33;99952.88;;;-3.90;76.94
58239;BME280;44037;55.638;37.356;2023-02-15T15:00:02;99946.19;;;-3.89;77.04
58239;BME280;44037;55.638;37.356;2023-02-15T15:02:44;99946.19;;;-3.89;77.53
58239;BME280;44037;55.638;37.356;2023-02-15T15:05:18;99965.56;;;-3.90;77.24
58239;BME280;44037;55.638;37.356;2023-02-15T15:07:47;99951.25;;;-3.89;77.23
58239;BME280;44037;55.638;37.356;2023-02-15T15:10:42;99953.78;;;-3.89;77.15